Time;durP1;ratioP1;P1;durP2;ratioP2;P2;SDS_P1;SDS_P2;PMS_P1;PMS_P2;Temp;Humidity;BMP_temperature;BMP_pressure;BME280_temperature;BME280_humidity;BME280_pressure;Samples;Min_cycle;Max_cycle;Signal;HPM_P1;HPM_P2
2020/12/25 00:01:27;;;;;;;6.50;1.48;;;4.70;99.90;;;;;;5083694;28;20060;-79
2020/12/25 00:03:56;;;;;;;6.22;1.27;;;4.60;99.90;;;;;;5083492;28;20027;-78
2020/12/25 00:06:23;;;;;;;5.65;1.08;;;4.60;99.90;;;;;;5081332;28;20016;-79
2020/12/25 00:08:49;;;;;;;7.10;0.90;;;4.60;99.90;;;;;;5081862;28;20036;-78
2020/12/25 00:11:14;;;;;;;6.35;1.25;;;4.60;99.90;;;;;;5082495;28;20061;-79
2020/12/25 00:13:40;;;;;;;4.35;0.93;;;4.50;99.90;;;;;;5083992;28;20101;-79
2020/12/25 00:16:06;;;;;;;4.20;1.15;;;4.50;99.90;;;;;;5081123;28;20028;-79
2020/12/25 00:18:31;;;;;;;5.93;1.10;;;4.50;99.90;;;;;;5081784;28;20020;-79
2020/12/25 00:20:57;;;;;;;3.33;1.00;;;4.40;99.90;;;;;;5055784;28;20016;-78
2020/12/25 00:23:22;;;;;;;4.07;1.00;;;4.40;99.90;;;;;;5064776;28;20021;-78
2020/12/25 00:25:48;;;;;;;8.15;1.23;;;4.40;99.90;;;;;;5064686;28;20479;-78
2020/12/25 00:28:14;;;;;;;6.78;1.10;;;4.40;99.90;;;;;;5083630;28;20039;-78
2020/12/25 00:30:43;;;;;;;4.03;0.95;;;4.30;99.90;;;;;;5081997;28;20526;-79
2020/12/25 00:33:10;;;;;;;3.25;0.75;;;4.30;99.90;;;;;;5083681;28;20008;-78
2020/12/25 00:35:35;;;;;;;5.57;0.95;;;4.30;99.90;;;;;;5063166;28;20030;-78
2020/12/25 00:38:01;;;;;;;4.82;1.08;;;4.30;99.90;;;;;;5062466;28;20020;-79
2020/12/25 00:40:26;;;;;;;3.42;0.80;;;4.20;99.90;;;;;;5056527;28;20025;-79
2020/12/25 00:42:52;;;;;;;3.35;0.85;;;4.20;99.90;;;;;;5057694;28;20020;-79
2020/12/25 00:45:18;;;;;;;5.20;0.80;;;4.20;99.90;;;;;;5083812;28;20025;-78
2020/12/25 00:47:44;;;;;;;7.47;1.20;;;4.20;99.90;;;;;;5081237;28;20024;-78
2020/12/25 00:50:10;;;;;;;3.60;0.88;;;4.20;99.90;;;;;;5080956;28;20048;-78
2020/12/25 00:52:35;;;;;;;3.83;0.85;;;4.20;99.90;;;;;;5065098;28;20109;-79
2020/12/25 00:55:01;;;;;;;4.00;1.17;;;4.20;99.90;;;;;;5059791;28;20480;-78
2020/12/25 00:57:27;;;;;;;4.95;1.05;;;4.20;99.90;;;;;;5082412;28;20099;-78
2020/12/25 00:59:52;;;;;;;5.03;1.00;;;4.10;99.90;;;;;;5061988;28;20107;-78
2020/12/25 01:02:17;;;;;;;6.07;1.02;;;4.10;99.90;;;;;;5083985;28;20471;-79
2020/12/25 01:04:43;;;;;;;7.20;1.35;;;4.10;99.90;;;;;;5067233;28;20031;-79
2020/12/25 01:07:09;;;;;;;9.27;1.02;;;4.10;99.90;;;;;;5060577;28;20023;-78
2020/12/25 01:09:34;;;;;;;8.98;1.35;;;4.00;99.90;;;;;;5066989;28;20517;-79
2020/12/25 01:12:01;;;;;;;10.35;1.25;;;4.00;99.90;;;;;;5088322;28;20479;-79
2020/12/25 01:14:28;;;;;;;7.93;1.50;;;4.00;99.90;;;;;;5084877;28;20031;-79
2020/12/25 01:16:55;;;;;;;4.45;1.20;;;4.00;99.90;;;;;;5066556;28;20016;-78
2020/12/25 01:19:27;;;;;;;5.53;1.30;;;4.00;99.90;;;;;;5060314;28;20076;-78
2020/12/25 01:21:52;;;;;;;5.18;1.02;;;4.00;99.90;;;;;;5085209;28;20021;-78
2020/12/25 01:24:18;;;;;;;5.57;0.80;;;4.00;99.90;;;;;;5083907;28;20380;-79
2020/12/25 01:26:44;;;;;;;6.05;0.93;;;4.00;99.90;;;;;;5085286;28;20031;-78
2020/12/25 01:29:10;;;;;;;6.15;0.90;;;4.00;99.90;;;;;;5066121;28;20035;-78
2020/12/25 01:31:35;;;;;;;5.32;0.82;;;4.00;99.90;;;;;;5085844;28;20090;-78
2020/12/25 01:34:01;;;;;;;5.22;0.88;;;4.00;99.90;;;;;;5066213;28;20518;-78
2020/12/25 01:36:27;;;;;;;7.63;1.88;;;4.00;99.90;;;;;;5067596;28;20033;-78
2020/12/25 01:38:52;;;;;;;8.10;1.00;;;4.00;99.90;;;;;;5066589;28;20085;-78
2020/12/25 01:41:18;;;;;;;7.10;1.45;;;4.00;99.90;;;;;;5058829;28;20032;-78
2020/12/25 01:43:44;;;;;;;4.95;0.73;;;4.00;99.90;;;;;;5086167;28;20031;-78
2020/12/25 01:46:11;;;;;;;4.47;0.90;;;3.90;99.90;;;;;;5086578;28;20031;-78
2020/12/25 01:48:37;;;;;;;8.43;0.80;;;3.90;99.90;;;;;;5082947;28;20054;-78
2020/12/25 01:51:04;;;;;;;6.85;1.23;;;3.90;99.90;;;;;;5065256;28;20047;-78
2020/12/25 01:53:30;;;;;;;8.63;1.10;;;3.90;99.90;;;;;;5084378;28;20652;-78
2020/12/25 01:55:57;;;;;;;6.38;1.10;;;3.90;99.90;;;;;;5086644;28;20017;-78
2020/12/25 01:58:24;;;;;;;11.57;1.75;;;3.90;99.90;;;;;;5059218;28;20429;-78
2020/12/25 02:00:51;;;;;;;8.25;0.95;;;3.90;99.90;;;;;;5067300;28;20020;-78
2020/12/25 02:03:17;;;;;;;6.70;1.40;;;3.90;99.90;;;;;;5058248;28;20075;-78
2020/12/25 02:05:44;;;;;;;6.22;0.93;;;3.80;99.90;;;;;;5081797;28;20486;-78
2020/12/25 02:08:10;;;;;;;5.10;0.80;;;3.80;99.90;;;;;;5065997;28;20023;-78
2020/12/25 02:10:37;;;;;;;4.50;0.68;;;3.80;99.90;;;;;;5084379;28;20036;-78
2020/12/25 02:13:04;;;;;;;3.40;0.70;;;3.80;99.90;;;;;;5068280;28;20089;-78
2020/12/25 02:15:30;;;;;;;8.40;0.85;;;3.80;99.90;;;;;;5082687;28;20020;-78
2020/12/25 02:17:55;;;;;;;9.10;0.70;;;3.90;99.90;;;;;;5085666;28;20506;-78
2020/12/25 02:20:21;;;;;;;5.85;0.93;;;3.90;99.90;;;;;;5080510;28;20106;-78
2020/12/25 02:22:46;;;;;;;7.50;0.80;;;3.90;99.90;;;;;;5082792;28;20028;-79
2020/12/25 02:25:12;;;;;;;5.22;0.88;;;3.90;99.90;;;;;;5083400;28;20098;-78
2020/12/25 02:27:37;;;;;;;5.30;0.80;;;3.90;99.90;;;;;;5068069;28;20111;-78
2020/12/25 02:30:05;;;;;;;5.70;0.90;;;3.90;99.90;;;;;;5066354;28;20048;-78
2020/12/25 02:32:31;;;;;;;2.78;1.00;;;3.90;99.90;;;;;;5066575;28;20039;-78
2020/12/25 02:34:56;;;;;;;3.55;0.75;;;3.90;99.90;;;;;;5068705;28;20383;-79
2020/12/25 02:37:22;;;;;;;7.18;0.90;;;3.90;99.90;;;;;;5069979;28;20062;-78
2020/12/25 02:39:48;;;;;;;6.85;1.00;;;3.90;99.90;;;;;;5083179;28;20024;-78
2020/12/25 02:42:13;;;;;;;5.05;0.80;;;3.90;99.90;;;;;;5067762;28;20020;-78
2020/12/25 02:44:39;;;;;;;5.65;0.80;;;4.00;99.90;;;;;;5065356;28;20472;-78
2020/12/25 02:47:05;;;;;;;5.25;0.60;;;4.00;99.90;;;;;;5056677;28;20020;-78
2020/12/25 02:49:31;;;;;;;6.78;0.88;;;4.10;99.90;;;;;;5066181;28;20496;-78
2020/12/25 02:51:56;;;;;;;5.13;0.60;;;4.10;99.90;;;;;;5066031;28;20028;-79
2020/12/25 02:54:22;;;;;;;5.10;0.40;;;4.20;99.90;;;;;;5066805;28;20427;-78
2020/12/25 02:56:47;;;;;;;6.82;0.63;;;4.20;99.90;;;;;;5067262;28;20608;-78
2020/12/25 02:59:13;;;;;;;5.78;0.70;;;4.30;99.90;;;;;;5064869;28;20012;-78
2020/12/25 03:01:38;;;;;;;3.78;0.80;;;4.30;99.90;;;;;;5065032;28;20016;-78
2020/12/25 03:04:04;;;;;;;3.95;0.50;;;4.30;99.90;;;;;;5082222;28;20245;-78
2020/12/25 03:06:29;;;;;;;5.80;0.40;;;4.30;99.90;;;;;;5082663;28;20399;-78
2020/12/25 03:08:55;;;;;;;3.53;0.40;;;4.30;99.90;;;;;;5082276;28;20025;-79
2020/12/25 03:11:20;;;;;;;7.30;0.47;;;4.30;99.90;;;;;;5066409;28;20054;-78
2020/12/25 03:13:46;;;;;;;2.88;0.60;;;4.20;99.90;;;;;;5085028;28;20039;-78
2020/12/25 03:16:11;;;;;;;4.68;0.35;;;4.20;99.90;;;;;;5083301;28;20024;-78
2020/12/25 03:18:37;;;;;;;4.00;0.40;;;4.20;99.90;;;;;;5065464;28;20020;-78
2020/12/25 03:21:03;;;;;;;4.35;0.30;;;4.20;99.90;;;;;;5082203;28;20427;-78
2020/12/25 03:23:28;;;;;;;3.42;0.30;;;4.20;99.90;;;;;;5068001;28;20032;-78
2020/12/25 03:25:54;;;;;;;2.67;0.30;;;4.10;99.90;;;;;;5065336;28;20012;-78
2020/12/25 03:28:20;;;;;;;3.00;0.65;;;4.10;99.90;;;;;;5082206;28;20544;-79
2020/12/25 03:30:45;;;;;;;2.85;0.40;;;4.10;99.90;;;;;;5083272;28;20118;-79
2020/12/25 03:33:11;;;;;;;6.13;0.60;;;4.10;99.90;;;;;;5066639;28;20104;-79
2020/12/25 03:35:36;;;;;;;4.18;0.50;;;4.00;99.90;;;;;;5085472;28;20051;-78
2020/12/25 03:38:02;;;;;;;3.13;0.40;;;4.00;99.90;;;;;;5066043;28;20059;-78
2020/12/25 03:40:27;;;;;;;4.75;0.40;;;4.00;99.90;;;;;;5085725;28;20044;-79
2020/12/25 03:42:53;;;;;;;4.43;0.85;;;4.00;99.90;;;;;;5083359;28;20468;-78
2020/12/25 03:45:18;;;;;;;5.68;0.40;;;4.00;99.90;;;;;;5080450;28;20101;-79
2020/12/25 03:47:44;;;;;;;3.25;0.55;;;4.00;99.90;;;;;;5064045;28;20545;-78
2020/12/25 03:50:10;;;;;;;5.90;0.40;;;4.00;99.90;;;;;;5082658;28;20048;-78
2020/12/25 03:52:35;;;;;;;1.83;0.30;;;4.00;99.90;;;;;;5063056;28;20046;-78
2020/12/25 03:55:02;;;;;;;4.65;0.40;;;3.90;99.90;;;;;;5083435;28;20012;-79
2020/12/25 03:57:27;;;;;;;3.60;0.40;;;3.90;99.90;;;;;;5068780;28;20020;-78
2020/12/25 03:59:53;;;;;;;3.80;0.47;;;3.90;99.90;;;;;;5082047;28;20024;-78
2020/12/25 04:02:18;;;;;;;3.92;0.43;;;3.90;99.90;;;;;;5080278;28;20511;-78
2020/12/25 04:04:44;;;;;;;2.17;0.47;;;3.90;99.90;;;;;;5084397;28;20030;-78
2020/12/25 04:07:09;;;;;;;1.88;0.30;;;3.90;99.90;;;;;;5082980;28;20028;-78
2020/12/25 04:09:35;;;;;;;4.43;0.40;;;3.90;99.90;;;;;;5064669;28;20035;-79
2020/12/25 04:12:01;;;;;;;1.83;0.30;;;3.90;99.90;;;;;;5057495;28;20020;-78
2020/12/25 04:14:26;;;;;;;3.75;0.50;;;3.80;99.90;;;;;;5085634;28;20544;-78
2020/12/25 04:16:52;;;;;;;3.03;0.50;;;3.80;99.90;;;;;;5083354;28;20069;-78
2020/12/25 04:19:17;;;;;;;2.47;0.28;;;3.80;99.90;;;;;;5082416;28;20019;-78
2020/12/25 04:21:43;;;;;;;3.33;0.20;;;3.80;99.90;;;;;;5082079;28;20494;-78
2020/12/25 04:24:08;;;;;;;0.90;0.20;;;3.80;99.90;;;;;;5065296;28;20498;-78
2020/12/25 04:26:34;;;;;;;1.27;0.30;;;3.80;99.90;;;;;;5062948;28;20021;-78
2020/12/25 04:28:59;;;;;;;4.18;0.70;;;3.80;99.90;;;;;;5063155;28;20412;-78
2020/12/25 04:31:26;;;;;;;2.70;0.30;;;3.80;99.90;;;;;;5064277;28;20016;-78
2020/12/25 04:33:52;;;;;;;1.70;0.30;;;3.80;99.90;;;;;;5081904;28;20030;-78
2020/12/25 04:36:19;;;;;;;2.08;0.20;;;3.80;99.90;;;;;;5058971;28;20027;-78
2020/12/25 04:38:45;;;;;;;0.30;0.10;;;3.80;99.90;;;;;;5084691;28;20112;-78
2020/12/25 04:41:11;;;;;;;1.77;0.30;;;3.80;99.90;;;;;;5055701;28;20020;-78
2020/12/25 04:43:39;;;;;;;2.35;0.30;;;3.80;99.90;;;;;;5078447;28;20095;-78
2020/12/25 04:46:06;;;;;;;5.70;0.30;;;3.90;99.90;;;;;;5063161;28;20083;-78
2020/12/25 04:48:32;;;;;;;1.38;0.28;;;3.80;99.90;;;;;;5061664;28;20109;-78
2020/12/25 04:50:58;;;;;;;2.85;0.20;;;3.80;99.90;;;;;;5082903;28;20496;-78
2020/12/25 04:53:25;;;;;;;2.97;0.30;;;3.80;99.90;;;;;;5081878;28;20043;-78
2020/12/25 04:55:51;;;;;;;4.20;0.40;;;3.80;99.90;;;;;;5062099;28;20016;-78
2020/12/25 04:58:16;;;;;;;4.35;0.47;;;3.80;99.90;;;;;;5062210;28;20017;-78
2020/12/25 05:00:42;;;;;;;5.47;0.40;;;3.80;99.90;;;;;;5084908;28;20020;-78
2020/12/25 05:03:07;;;;;;;2.88;0.47;;;3.70;99.90;;;;;;5063526;28;20020;-78
2020/12/25 05:05:33;;;;;;;3.65;0.38;;;3.80;99.90;;;;;;5080385;28;20035;-78
2020/12/25 05:08:00;;;;;;;1.63;0.32;;;3.80;99.90;;;;;;5064721;28;20016;-78
2020/12/25 05:10:26;;;;;;;1.10;0.30;;;3.80;99.90;;;;;;5071272;28;20055;-78
2020/12/25 05:12:53;;;;;;;2.72;0.30;;;3.70;99.90;;;;;;5083240;28;20028;-78
2020/12/25 05:15:19;;;;;;;5.13;0.40;;;3.70;99.90;;;;;;5063352;28;20511;-78
2020/12/25 05:17:45;;;;;;;2.42;0.40;;;3.70;99.90;;;;;;5064012;28;20522;-78
2020/12/25 05:20:12;;;;;;;1.10;0.22;;;3.60;99.90;;;;;;5083477;28;20479;-78
2020/12/25 05:22:38;;;;;;;1.60;0.38;;;3.50;99.90;;;;;;5084693;28;20031;-78
2020/12/25 05:25:06;;;;;;;4.15;0.40;;;3.50;99.90;;;;;;5062281;28;20103;-78
2020/12/25 05:27:32;;;;;;;3.60;0.47;;;3.40;99.90;;;;;;5061094;28;20031;-78
2020/12/25 05:29:59;;;;;;;2.72;0.50;;;3.40;99.90;;;;;;5080829;28;20025;-78
2020/12/25 05:32:28;;;;;;;0.77;0.20;;;3.40;99.90;;;;;;5060983;28;20028;-78
2020/12/25 05:34:55;;;;;;;2.97;0.50;;;3.30;99.90;;;;;;5063292;28;20107;-78
2020/12/25 05:37:22;;;;;;;1.73;0.35;;;3.30;99.90;;;;;;5081705;28;20016;-78
2020/12/25 05:39:48;;;;;;;3.33;0.40;;;3.30;99.90;;;;;;5061886;28;20026;-78
2020/12/25 05:42:14;;;;;;;3.30;0.28;;;3.20;99.90;;;;;;5053244;28;20464;-78
2020/12/25 05:44:44;;;;;;;2.35;0.30;;;3.20;99.90;;;;;;5064542;28;20094;-78
2020/12/25 05:47:13;;;;;;;2.10;0.30;;;3.20;99.90;;;;;;5063262;28;20021;-78
2020/12/25 05:49:38;;;;;;;4.57;0.40;;;3.10;99.90;;;;;;5081971;28;20044;-79
2020/12/25 05:52:04;;;;;;;3.95;0.30;;;3.10;99.90;;;;;;5084447;28;20016;-78
2020/12/25 05:54:31;;;;;;;2.90;0.50;;;3.10;99.90;;;;;;5067779;28;20028;-78
2020/12/25 05:56:57;;;;;;;2.42;0.45;;;3.10;99.90;;;;;;5068266;28;20111;-78
2020/12/25 05:59:28;;;;;;;3.83;0.60;;;3.10;99.90;;;;;;5085950;28;20012;-78
2020/12/25 06:01:58;;;;;;;4.82;0.85;;;3.00;99.90;;;;;;5058709;28;20479;-78
2020/12/25 06:04:24;;;;;;;;;;;3.00;99.90;;;;;;5083421;28;20016;-78
2020/12/25 06:06:50;;;;;;;3.25;0.60;;;3.00;99.90;;;;;;5085960;28;20132;-78
2020/12/25 06:09:18;;;;;;;3.63;0.88;;;2.90;99.90;;;;;;5085793;28;20380;-78
2020/12/25 06:11:50;;;;;;;2.13;0.60;;;3.00;99.90;;;;;;5085135;28;20157;-78
2020/12/25 06:14:17;;;;;;;3.67;0.90;;;3.00;99.90;;;;;;5084960;28;20020;-78
2020/12/25 06:16:55;;;;;;;3.88;0.80;;;3.00;99.90;;;;;;5066966;28;20041;-78
2020/12/25 06:19:34;;;;;;;3.97;0.80;;;3.10;99.90;;;;;;5084362;28;20024;-78
2020/12/25 06:22:02;;;;;;;3.73;0.70;;;3.10;99.90;;;;;;5083635;28;20017;-78
2020/12/25 06:24:34;;;;;;;5.82;0.70;;;3.00;99.90;;;;;;5084285;28;20341;-79
2020/12/25 06:27:01;;;;;;;5.47;0.80;;;3.00;99.90;;;;;;5083773;28;20032;-78
2020/12/25 06:29:28;;;;;;;3.15;0.85;;;3.10;99.90;;;;;;5060307;28;20464;-78
2020/12/25 06:31:55;;;;;;;5.30;0.68;;;3.00;99.90;;;;;;5067174;28;20040;-78
2020/12/25 06:34:21;;;;;;;3.72;0.63;;;3.10;99.90;;;;;;5084891;28;20109;-78
2020/12/25 06:36:48;;;;;;;3.53;0.60;;;3.10;99.90;;;;;;5072414;28;20047;-78
2020/12/25 06:39:16;;;;;;;9.05;0.63;;;3.20;99.90;;;;;;5082874;28;20032;-78
2020/12/25 06:41:41;;;;;;;6.47;0.47;;;3.20;99.90;;;;;;5069178;28;20066;-78
2020/12/25 06:44:08;;;;;;;10.10;0.80;;;3.30;99.90;;;;;;5064524;28;20469;-78
2020/12/25 06:46:35;;;;;;;2.78;0.50;;;3.40;99.90;;;;;;5064975;28;20024;-78
2020/12/25 06:49:07;;;;;;;2.13;0.40;;;3.40;99.90;;;;;;5067558;28;20024;-79
2020/12/25 06:51:40;;;;;;;5.47;0.40;;;3.50;99.90;;;;;;5058691;28;20025;-79
2020/12/25 06:54:15;;;;;;;5.88;0.77;;;3.50;99.90;;;;;;5083836;28;20016;-78
2020/12/25 06:56:41;;;;;;;8.50;0.75;;;3.60;99.90;;;;;;5066744;28;20024;-78
2020/12/25 06:59:14;;;;;;;5.22;0.50;;;3.60;99.90;;;;;;5057429;28;20066;-78
2020/12/25 07:01:42;;;;;;;2.10;0.52;;;3.60;99.90;;;;;;5066544;28;20384;-78
2020/12/25 07:04:28;;;;;;;4.93;0.50;;;3.60;99.90;;;;;;5057437;28;20050;-79
2020/12/25 07:07:06;;;;;;;1.70;0.40;;;3.60;99.90;;;;;;5069937;28;20063;-78
2020/12/25 07:09:44;;;;;;;4.05;0.60;;;3.60;99.90;;;;;;5055604;28;20025;-79
2020/12/25 07:12:18;;;;;;;5.85;0.65;;;3.60;99.90;;;;;;5055663;28;20104;-78
2020/12/25 07:14:43;;;;;;;3.97;0.80;;;3.60;99.90;;;;;;5054930;28;20035;-78
2020/12/25 07:17:10;;;;;;;7.25;0.70;;;3.60;99.90;;;;;;5076918;28;20044;-78
2020/12/25 07:19:36;;;;;;;10.55;0.98;;;3.60;99.90;;;;;;5066395;28;20028;-78
2020/12/25 07:22:04;;;;;;;8.63;0.50;;;3.60;99.90;;;;;;5065727;28;20017;-78
2020/12/25 07:24:30;;;;;;;8.20;0.50;;;3.60;99.90;;;;;;5083873;28;20120;-78
2020/12/25 07:26:56;;;;;;;4.32;0.52;;;3.60;99.90;;;;;;5084816;28;20032;-78
2020/12/25 07:29:22;;;;;;;9.20;0.90;;;3.70;99.90;;;;;;5083575;28;20168;-78
2020/12/25 07:31:50;;;;;;;5.22;0.47;;;3.70;99.90;;;;;;5080673;28;20131;-78
2020/12/25 07:34:24;;;;;;;8.23;1.05;;;3.60;99.90;;;;;;5090903;28;20379;-78
2020/12/25 07:36:51;;;;;;;6.57;0.70;;;3.60;99.90;;;;;;5074016;28;20073;-78
2020/12/25 07:39:17;;;;;;;4.97;0.57;;;3.60;99.90;;;;;;5066129;28;20027;-78
2020/12/25 07:41:44;;;;;;;10.15;0.80;;;3.50;99.90;;;;;;5090855;28;20025;-78
2020/12/25 07:44:10;;;;;;;8.48;0.95;;;3.40;99.90;;;;;;5093787;28;20024;-78
2020/12/25 07:46:37;;;;;;;8.35;0.75;;;3.40;99.90;;;;;;5075641;28;20387;-78
2020/12/25 07:49:04;;;;;;;9.82;1.15;;;3.30;99.90;;;;;;5075627;28;20024;-78
2020/12/25 07:51:30;;;;;;;7.72;1.08;;;3.20;99.90;;;;;;5075620;28;20514;-78
2020/12/25 07:53:57;;;;;;;14.68;1.00;;;3.20;99.90;;;;;;5075444;28;20028;-78
2020/12/25 07:56:31;;;;;;;5.75;1.02;;;3.10;99.90;;;;;;5075624;28;20482;-78
2020/12/25 07:58:57;;;;;;;9.20;1.02;;;3.10;99.90;;;;;;5075046;28;20020;-78
2020/12/25 08:01:25;;;;;;;7.55;0.85;;;3.10;99.90;;;;;;5093594;28;20031;-78
2020/12/25 08:03:51;;;;;;;11.13;1.23;;;3.10;99.90;;;;;;5075404;28;20024;-78
2020/12/25 08:06:24;;;;;;;4.97;0.80;;;3.10;99.90;;;;;;5078430;28;20023;-78
2020/12/25 08:08:58;;;;;;;6.85;0.85;;;3.10;99.90;;;;;;5055319;28;20248;-78
2020/12/25 08:11:25;;;;;;;6.85;0.80;;;3.10;99.90;;;;;;5073283;28;20395;-78
2020/12/25 08:13:53;;;;;;;5.78;1.30;;;3.10;99.90;;;;;;5072504;28;20480;-78
2020/12/25 08:16:19;;;;;;;9.98;1.05;;;3.10;99.90;;;;;;5055148;28;20460;-78
2020/12/25 08:18:48;;;;;;;3.45;1.08;;;3.00;99.90;;;;;;5055100;28;20029;-77
2020/12/25 08:21:15;;;;;;;11.27;1.20;;;3.00;99.90;;;;;;5055259;28;20039;-78
2020/12/25 08:23:40;;;;;;;11.63;1.60;;;3.00;99.90;;;;;;5054206;28;20028;-78
2020/12/25 08:26:07;;;;;;;9.77;1.08;;;2.90;99.90;;;;;;5054676;28;20023;-78
2020/12/25 08:28:34;;;;;;;11.77;1.65;;;2.90;99.90;;;;;;5058302;28;20017;-78
2020/12/25 08:31:16;;;;;;;12.73;2.15;;;2.90;99.90;;;;;;5073151;28;20012;-78
2020/12/25 08:33:54;;;;;;;11.55;2.70;;;2.90;99.90;;;;;;5078452;28;20028;-78
2020/12/25 08:36:21;;;;;;;10.77;1.95;;;2.90;99.90;;;;;;5092917;28;20035;-78
2020/12/25 08:38:47;;;;;;;8.27;1.77;;;2.80;99.90;;;;;;5074302;28;20494;-79
2020/12/25 08:41:12;;;;;;;9.63;1.88;;;2.80;99.90;;;;;;5063214;28;20025;-79
2020/12/25 08:43:38;;;;;;;7.38;1.70;;;2.80;99.90;;;;;;5071745;28;20020;-78
2020/12/25 08:46:03;;;;;;;4.57;1.73;;;2.80;99.90;;;;;;5074342;28;20020;-78
2020/12/25 08:48:50;;;;;;;5.78;1.70;;;2.80;99.90;;;;;;5077432;28;20494;-78
2020/12/25 08:51:17;;;;;;;10.00;2.28;;;2.80;99.90;;;;;;5047169;28;20067;-77
2020/12/25 08:53:53;;;;;;;10.25;1.80;;;2.80;99.90;;;;;;5085993;28;20021;-78
2020/12/25 08:56:21;;;;;;;9.75;1.98;;;2.90;99.90;;;;;;5062934;28;20087;-78
2020/12/25 08:59:07;;;;;;;8.13;2.20;;;2.90;99.90;;;;;;5060007;28;20838;-77
2020/12/25 09:01:37;;;;;;;10.80;1.55;;;2.80;99.90;;;;;;5064171;28;20146;-78
2020/12/25 09:04:03;;;;;;;;;;;2.80;99.90;;;;;;5064356;28;20413;-78
2020/12/25 09:06:29;;;;;;;11.52;1.52;;;2.80;99.90;;;;;;5064199;28;19905;-78
2020/12/25 09:08:54;;;;;;;6.43;1.27;;;2.90;99.90;;;;;;5063541;28;20028;-78
2020/12/25 09:11:24;;;;;;;9.35;1.88;;;2.90;99.90;;;;;;5065055;28;20031;-78
2020/12/25 09:13:51;;;;;;;;;;;3.00;99.90;;;;;;5065831;28;20097;-78
2020/12/25 09:16:17;;;;;;;9.25;1.55;;;3.00;99.90;;;;;;5064528;28;19927;-78
2020/12/25 09:18:42;;;;;;;7.70;1.65;;;3.00;99.90;;;;;;5083879;28;20468;-78
2020/12/25 09:21:12;;;;;;;7.78;1.45;;;3.10;99.90;;;;;;5057550;28;20489;-78
2020/12/25 09:23:38;;;;;;;8.68;2.13;;;3.10;99.90;;;;;;5065899;28;20024;-78
2020/12/25 09:26:07;;;;;;;8.68;1.42;;;3.20;99.90;;;;;;5062235;28;20493;-78
2020/12/25 09:28:37;;;;;;;13.88;2.95;;;3.40;99.90;;;;;;5085169;28;20071;-78
2020/12/25 09:31:08;;;;;;;10.10;1.85;;;3.50;99.90;;;;;;5057516;28;20387;-78
2020/12/25 09:33:33;;;;;;;8.15;2.30;;;3.60;99.90;;;;;;5073939;28;20430;-78
2020/12/25 09:35:59;;;;;;;7.78;1.33;;;3.60;99.90;;;;;;5059786;28;20046;-77
2020/12/25 09:38:25;;;;;;;8.40;1.45;;;3.70;99.90;;;;;;5067148;28;20020;-78
2020/12/25 09:40:52;;;;;;;6.63;0.77;;;3.80;99.90;;;;;;5069728;28;20071;-78
2020/12/25 09:43:18;;;;;;;4.53;0.98;;;3.90;99.90;;;;;;5063357;28;20031;-78
2020/12/25 09:45:44;;;;;;;2.42;0.63;;;4.00;99.90;;;;;;5065544;28;20021;-78
2020/12/25 09:48:10;;;;;;;4.47;1.52;;;4.00;99.90;;;;;;5079390;28;20016;-78
2020/12/25 09:50:35;;;;;;;4.15;0.80;;;4.10;99.90;;;;;;5074760;28;20052;-78
2020/12/25 09:53:01;;;;;;;6.07;0.70;;;4.10;99.90;;;;;;5074874;28;20024;-78
2020/12/25 09:55:27;;;;;;;6.80;1.02;;;4.10;99.90;;;;;;5058947;28;20070;-78
2020/12/25 09:57:53;;;;;;;5.57;0.80;;;4.20;99.90;;;;;;5075255;28;20012;-77
2020/12/25 10:00:18;;;;;;;3.55;0.70;;;4.20;99.90;;;;;;5057110;28;20456;-78
2020/12/25 10:02:44;;;;;;;5.03;0.60;;;4.20;99.90;;;;;;5057049;28;20533;-78
2020/12/25 10:05:11;;;;;;;2.60;0.47;;;4.30;99.90;;;;;;5074673;28;20028;-78
2020/12/25 10:07:37;;;;;;;5.43;0.70;;;4.30;99.90;;;;;;5074554;28;20023;-78
2020/12/25 10:10:04;;;;;;;5.18;0.70;;;4.40;99.90;;;;;;5074425;28;20111;-78
2020/12/25 10:12:29;;;;;;;6.80;0.70;;;4.40;99.90;;;;;;5056897;28;20025;-78
2020/12/25 10:14:55;;;;;;;2.78;0.40;;;4.50;99.90;;;;;;5056717;28;20038;-78
2020/12/25 10:17:20;;;;;;;5.28;0.93;;;4.50;99.90;;;;;;5056957;28;20491;-78
2020/12/25 10:19:46;;;;;;;9.02;1.05;;;4.60;99.90;;;;;;5074480;28;20082;-78
2020/12/25 10:22:12;;;;;;;7.32;1.23;;;4.60;99.90;;;;;;5056685;28;20033;-78
2020/12/25 10:24:38;;;;;;;5.35;1.00;;;4.70;99.90;;;;;;5056411;28;20028;-78
2020/12/25 10:27:04;;;;;;;5.70;0.80;;;4.80;99.90;;;;;;5076427;28;20039;-78
2020/12/25 10:29:29;;;;;;;5.07;0.57;;;4.90;99.90;;;;;;5081576;28;20024;-78
2020/12/25 10:31:55;;;;;;;3.38;1.02;;;5.20;99.90;;;;;;5065004;28;20431;-78
2020/12/25 10:34:21;;;;;;;5.18;0.80;;;5.40;99.90;;;;;;5068958;28;20064;-78
2020/12/25 10:36:47;;;;;;;3.13;0.50;;;5.80;99.90;;;;;;5074653;28;20040;-78
2020/12/25 10:39:13;;;;;;;4.38;0.90;;;6.10;99.90;;;;;;5067955;28;20024;-78
2020/12/25 10:41:39;;;;;;;6.22;0.93;;;6.50;99.90;;;;;;5062411;28;20024;-78
2020/12/25 10:44:05;;;;;;;7.70;1.00;;;6.70;99.90;;;;;;5094657;28;20032;-78
2020/12/25 10:46:31;;;;;;;8.32;1.10;;;6.50;99.90;;;;;;5061687;28;20052;-78
2020/12/25 10:48:56;;;;;;;4.22;0.80;;;6.20;99.90;;;;;;5055198;28;20074;-78
2020/12/25 10:51:22;;;;;;;3.75;0.90;;;6.20;99.90;;;;;;5076501;28;20024;-78
2020/12/25 10:53:50;;;;;;;7.78;1.00;;;6.30;99.90;;;;;;5055544;28;20028;-78
2020/12/25 10:56:26;;;;;;;6.90;1.00;;;6.60;99.90;;;;;;5055510;28;20067;-78
2020/12/25 10:58:53;;;;;;;3.90;0.80;;;6.70;99.90;;;;;;5055813;28;20116;-78
2020/12/25 11:01:23;;;;;;;4.35;0.80;;;6.90;99.90;;;;;;5058447;28;20028;-78
2020/12/25 11:03:48;;;;;;;6.95;1.27;;;7.20;99.70;;;;;;5055006;28;20046;-78
2020/12/25 11:06:14;;;;;;;8.75;1.27;;;7.00;99.30;;;;;;5073925;28;20058;-78
2020/12/25 11:08:39;;;;;;;7.97;1.17;;;6.90;99.30;;;;;;5064794;28;20055;-77
2020/12/25 11:11:05;;;;;;;3.45;0.90;;;7.10;99.60;;;;;;5073375;28;20022;-77
2020/12/25 11:13:33;;;;;;;5.43;0.93;;;7.30;99.90;;;;;;5085558;28;20027;-78
2020/12/25 11:15:58;;;;;;;3.00;0.60;;;7.40;99.70;;;;;;5079404;28;20059;-78
2020/12/25 11:18:24;;;;;;;7.03;0.88;;;7.30;99.90;;;;;;5080412;28;20050;-77
2020/12/25 11:20:50;;;;;;;2.80;0.50;;;7.30;99.90;;;;;;5077752;28;20021;-78
2020/12/25 11:23:18;;;;;;;5.57;0.90;;;7.40;99.90;;;;;;5075999;28;20031;-78
2020/12/25 11:25:44;;;;;;;4.25;0.50;;;7.40;99.90;;;;;;5072997;28;20095;-78
2020/12/25 11:28:09;;;;;;;8.43;0.75;;;7.50;99.90;;;;;;5056301;28;20147;-78
2020/12/25 11:30:35;;;;;;;3.63;0.50;;;7.40;98.90;;;;;;5072920;28;20029;-78
2020/12/25 11:33:00;;;;;;;5.38;0.52;;;7.40;99.50;;;;;;5072349;28;20021;-78
2020/12/25 11:35:26;;;;;;;4.72;0.70;;;7.50;99.90;;;;;;5058680;28;20178;-78
2020/12/25 11:37:51;;;;;;;3.83;0.43;;;7.60;99.90;;;;;;5074461;28;20597;-78
2020/12/25 11:40:17;;;;;;;4.60;0.68;;;7.60;99.90;;;;;;5054326;28;20035;-78
2020/12/25 11:42:42;;;;;;;4.75;0.57;;;7.70;99.90;;;;;;5072514;28;20017;-78
2020/12/25 11:45:08;;;;;;;2.58;0.50;;;7.80;99.80;;;;;;5054878;28;20112;-78
2020/12/25 11:47:33;;;;;;;5.35;0.77;;;7.80;99.30;;;;;;5053705;28;20021;-78
2020/12/25 11:50:02;;;;;;;6.70;1.02;;;7.80;99.40;;;;;;5063788;28;20044;-78
2020/12/25 11:52:32;;;;;;;5.22;0.88;;;7.70;98.60;;;;;;5063248;28;20055;-78
2020/12/25 11:54:57;;;;;;;4.63;0.50;;;7.60;98.00;;;;;;5080123;28;20748;-78
2020/12/25 11:57:23;;;;;;;5.15;0.57;;;7.70;98.90;;;;;;5074574;28;20073;-78
2020/12/25 11:59:48;;;;;;;4.40;0.50;;;7.80;98.40;;;;;;5054865;28;20042;-78
2020/12/25 12:02:14;;;;;;;3.42;0.40;;;8.00;97.50;;;;;;5081104;28;20032;-78
2020/12/25 12:04:39;;;;;;;3.95;0.57;;;8.30;97.00;;;;;;5072742;28;20021;-78
2020/12/25 12:07:05;;;;;;;4.45;0.70;;;8.30;97.00;;;;;;5054409;28;20058;-78
2020/12/25 12:09:30;;;;;;;3.35;0.40;;;8.20;96.50;;;;;;5072702;28;20025;-78
2020/12/25 12:11:56;;;;;;;3.80;0.77;;;7.80;96.90;;;;;;5072455;28;20111;-78
2020/12/25 12:14:21;;;;;;;5.30;0.60;;;7.60;97.10;;;;;;5054209;28;20431;-78
2020/12/25 12:16:51;;;;;;;4.32;0.82;;;7.40;97.00;;;;;;5054496;28;20025;-78
2020/12/25 12:19:17;;;;;;;5.45;0.50;;;7.30;97.80;;;;;;5054572;28;20012;-78
2020/12/25 12:21:42;;;;;;;2.92;0.43;;;7.20;98.40;;;;;;5054670;28;20031;-78
2020/12/25 12:24:08;;;;;;;4.63;0.73;;;7.30;98.80;;;;;;5054291;28;20031;-78
2020/12/25 12:26:33;;;;;;;3.38;0.77;;;7.40;98.50;;;;;;5083543;28;20024;-78
2020/12/25 12:28:59;;;;;;;4.03;0.50;;;7.50;98.80;;;;;;5092955;28;20027;-78
2020/12/25 12:31:24;;;;;;;3.28;0.40;;;7.60;98.70;;;;;;5090543;28;20498;-78
2020/12/25 12:33:50;;;;;;;5.65;0.70;;;7.60;97.80;;;;;;5074503;28;20035;-78
2020/12/25 12:36:16;;;;;;;3.15;0.40;;;7.70;98.30;;;;;;5074669;28;20375;-78
2020/12/25 12:38:41;;;;;;;2.15;0.50;;;8.00;97.40;;;;;;5092605;28;20020;-78
2020/12/25 12:41:07;;;;;;;6.43;0.57;;;8.00;96.80;;;;;;5074897;28;20123;-78
2020/12/25 12:43:32;;;;;;;5.25;0.77;;;7.90;96.80;;;;;;5092884;28;20095;-78
2020/12/25 12:45:58;;;;;;;3.63;1.05;;;8.00;97.70;;;;;;5093013;28;20561;-78
2020/12/25 12:48:23;;;;;;;5.30;0.65;;;8.20;96.90;;;;;;5092902;28;20054;-78
2020/12/25 12:50:50;;;;;;;7.30;0.60;;;8.50;96.40;;;;;;5074417;28;20135;-78
2020/12/25 12:53:15;;;;;;;6.18;1.05;;;8.80;95.40;;;;;;5092589;28;20074;-78
2020/12/25 12:55:41;;;;;;;3.15;0.60;;;9.00;94.00;;;;;;5074571;28;20024;-78